< Typhoon 199322 1993 Season Typhoon 199324 >
Typhoon 199323 (IRA)
General InformationTrack Information on Google MapsDetailed Wind InformationList of All Images || NewsDisaster Info.ResourceGoogle EarthGE AnimationAtom FeedGeoJSON
Detalied Best Track (Time Zone = UTC)
Year Month Day Hour Lat. Long. Pressure (hPa) Wind (kt) Class Image Chart
1993 10 27 12 12.5 146.0 1006 0 2 Image Chart
1993 10 27 18 12.5 144.5 1004 0 2 Image Chart
1993 10 28 00 12.6 143.0 1002 0 2 Image Chart
1993 10 28 06 12.9 141.2 1000 35 3 Image Chart
1993 10 28 12 13.2 139.3 996 35 3 Image Chart
1993 10 28 18 13.3 137.7 992 40 3 Image Chart
1993 10 29 00 13.2 136.3 990 45 3 Image Chart
1993 10 29 06 13.3 135.0 985 50 4 Image Chart
1993 10 29 12 13.5 133.7 980 55 4 Image Chart
1993 10 29 18 13.9 132.3 975 60 4 Image Chart
1993 10 30 00 14.3 130.7 970 65 5 Image Chart
1993 10 30 06 14.6 129.4 965 70 5 Image Chart
1993 10 30 12 14.8 128.4 960 75 5 Image Chart
1993 10 30 18 15.0 127.5 955 75 5 Image Chart
1993 10 31 00 15.3 126.6 950 80 5 Image Chart
1993 10 31 06 15.5 125.8 950 80 5 Image Chart
1993 10 31 12 15.7 125.1 950 80 5 Image Chart
1993 10 31 18 15.9 124.5 950 80 5 Image Chart
1993 11 1 00 16.0 123.6 955 75 5 Image Chart
1993 11 1 06 16.1 122.3 960 70 5 Image Chart
1993 11 1 12 16.2 121.0 975 60 4 Image Chart
1993 11 1 18 16.3 120.0 985 55 4 Image Chart
1993 11 2 00 16.6 119.2 985 55 4 Image Chart
1993 11 2 06 16.9 118.3 985 55 4 Image Chart
1993 11 2 12 17.2 117.2 985 55 4 Image Chart
1993 11 2 18 17.5 116.1 990 50 4 Image Chart
1993 11 3 00 17.8 115.4 990 50 4 Image Chart
1993 11 3 06 18.2 114.8 990 50 4 Image Chart
1993 11 3 12 18.8 114.2 990 50 4 Image Chart
1993 11 3 18 19.3 113.6 990 50 4 Image Chart
1993 11 4 00 19.9 112.9 992 45 3 Image Chart
1993 11 4 06 20.6 112.2 996 40 3 Image Chart
1993 11 4 12 21.3 111.5 1000 35 3 Image Chart
1993 11 4 18 22.0 111.0 1004 0 2 Image Chart
1993 11 5 00 23.0 110.5 1008 0 2 Image Chart
Japan Meteorological Agency Best Track Data | Correction Date : 1994-01-10
< Typhoon 199322 1993 Season Typhoon 199324 >

Help